Time;durP1;ratioP1;P1;durP2;ratioP2;P2;SDS_P1;SDS_P2;PMS_P1;PMS_P2;Temp;Humidity;BMP_temperature;BMP_pressure;BME280_temperature;BME280_humidity;BME280_pressure;Samples;Min_cycle;Max_cycle;Signal;HPM_P1;HPM_P2
2022/04/21 00:00:45;;;;;;;18.80;11.40;;;;;;;3.23;64.61;97362.91;1682947;85;21043;-85
2022/04/21 00:03:11;;;;;;;18.23;10.88;;;;;;;3.22;64.32;97363.80;1682842;85;21051;-85
2022/04/21 00:05:38;;;;;;;20.02;11.48;;;;;;;3.21;63.88;97360.77;1682918;84;21038;-85
2022/04/21 00:08:05;;;;;;;15.45;10.58;;;;;;;3.17;64.10;97364.72;1682948;84;20991;-85
2022/04/21 00:10:32;;;;;;;15.65;10.32;;;;;;;3.15;64.49;97366.49;1686335;84;21007;-84
2022/04/21 00:12:58;;;;;;;15.15;10.53;;;;;;;3.11;63.99;97361.31;1683874;84;21023;-85
2022/04/21 00:15:26;;;;;;;17.45;10.38;;;;;;;3.10;64.10;97359.56;1701982;84;21427;-85
2022/04/21 00:17:52;;;;;;;15.98;10.13;;;;;;;3.03;63.90;97359.62;1702034;84;21068;-84
2022/04/21 00:20:19;;;;;;;15.75;10.45;;;;;;;3.01;64.37;97360.09;1696858;84;21534;-85
2022/04/21 00:25:31;;;;;;;18.80;10.72;;;;;;;2.93;64.74;97363.22;1683057;85;21437;-85
2022/04/21 00:27:58;;;;;;;16.42;10.53;;;;;;;2.88;64.49;97358.47;1682793;85;21544;-85
2022/04/21 00:30:25;;;;;;;16.70;9.88;;;;;;;2.84;64.44;97357.63;1677949;84;21035;-85
2022/04/21 00:32:52;;;;;;;17.17;10.78;;;;;;;2.81;64.60;97358.95;1689177;84;21008;-85
2022/04/21 00:35:18;;;;;;;15.43;10.20;;;;;;;2.80;65.13;97361.58;1690632;84;21009;-85
2022/04/21 00:37:53;;;;;;;15.20;10.45;;;;;;;2.82;65.20;97352.83;1691713;84;21060;-85
2022/04/21 00:40:21;;;;;;;18.00;10.65;;;;;;;2.81;65.67;97361.58;1691747;84;21005;-85
2022/04/21 00:42:48;;;;;;;14.07;10.00;;;;;;;2.81;66.25;97360.69;1691567;85;21538;-85
2022/04/21 00:45:16;;;;;;;15.98;9.40;;;;;;;2.79;66.32;97362.47;1691761;84;20997;-85
2022/04/21 00:47:45;;;;;;;13.85;9.68;;;;;;;2.78;66.71;97366.82;1691533;84;21056;-85
2022/04/21 00:50:18;;;;;;;15.53;10.18;;;;;;;2.81;66.89;97360.69;1689423;85;21044;-84
2022/04/21 00:52:46;;;;;;;16.02;10.18;;;;;;;2.84;67.27;97360.68;1689538;84;21457;-85
2022/04/21 00:55:14;;;;;;;17.55;10.53;;;;;;;2.85;67.36;97359.79;1689697;84;21001;-85
2022/04/21 00:57:42;;;;;;;19.05;10.95;;;;;;;2.85;67.57;97364.59;1689404;84;21028;-85
2022/04/21 01:00:11;;;;;;;17.67;10.70;;;;;;;2.84;67.38;97371.14;1689349;84;21052;-85
2022/04/21 01:02:47;;;;;;;16.02;10.72;;;;;;;2.85;67.52;97361.98;1690291;85;21402;-85
2022/04/21 01:05:26;;;;;;;19.17;11.88;;;;;;;2.86;67.08;97366.78;1691505;85;21009;-85
2022/04/21 01:07:55;;;;;;;15.80;11.08;;;;;;;2.81;66.94;97360.69;1691605;85;20989;-85
2022/04/21 01:10:22;;;;;;;20.32;11.65;;;;;;;2.77;66.89;97365.09;1691524;85;21049;-85
2022/04/21 01:12:50;;;;;;;16.55;10.78;;;;;;;2.75;66.66;97366.41;1691508;84;20997;-85
2022/04/21 01:15:16;;;;;;;17.45;11.73;;;;;;;2.72;66.59;97365.58;1691409;85;21044;-85
2022/04/21 01:17:45;;;;;;;18.95;11.68;;;;;;;2.67;66.78;97369.98;1689348;84;20988;-85
2022/04/21 01:20:17;;;;;;;15.40;11.08;;;;;;;2.63;67.05;97363.91;1689561;84;21016;-85
2022/04/21 01:22:46;;;;;;;16.55;11.25;;;;;;;2.62;66.61;97364.80;1689387;84;20999;-85
2022/04/21 01:25:13;;;;;;;17.07;10.85;;;;;;;2.55;66.63;97367.89;1690862;85;21415;-85
2022/04/21 01:27:41;;;;;;;19.25;11.55;;;;;;;2.47;68.63;97373.19;1691700;85;20953;-85
2022/04/21 01:30:11;;;;;;;17.65;11.73;;;;;;;2.41;67.96;97374.52;1693034;83;21038;-85
2022/04/21 01:32:48;;;;;;;17.10;11.22;;;;;;;2.39;67.27;97371.05;1682695;85;21027;-85
2022/04/21 01:35:15;;;;;;;18.25;11.22;;;;;;;2.36;68.67;97369.75;1703394;84;21022;-85
2022/04/21 01:43:12;;;;;;;17.20;11.28;;;;;;;2.27;68.76;97369.39;1684273;84;21026;-85
2022/04/21 01:45:41;;;;;;;16.52;11.40;;;;;;;2.19;68.91;97375.09;1699447;84;21010;-85
2022/04/21 01:48:07;;;;;;;17.70;11.80;;;;;;;2.18;68.07;97372.94;1699900;84;21005;-85
2022/04/21 01:50:34;;;;;;;16.87;11.10;;;;;;;2.18;67.91;97374.67;1699888;84;21030;-84
2022/04/21 01:53:01;;;;;;;18.90;10.90;;;;;;;2.10;68.00;97369.48;1699721;84;20977;-84
2022/04/21 01:55:28;;;;;;;16.48;11.15;;;;;;;2.05;69.48;97366.92;1699808;84;21001;-85
2022/04/21 01:57:55;;;;;;;19.37;11.45;;;;;;;2.01;69.12;97369.11;1691413;84;21082;-85
2022/04/21 02:00:22;;;;;;;18.30;11.30;;;;;;;2.01;68.52;97370.42;1703232;84;21053;-85
2022/04/21 02:02:49;;;;;;;23.87;11.60;;;;;;;2.00;68.21;97370.00;1682921;85;21046;-85
2022/04/21 02:05:16;;;;;;;16.00;11.00;;;;;;;1.99;68.11;97373.46;1703335;84;21472;-85
2022/04/21 02:07:44;;;;;;;16.45;11.10;;;;;;;1.98;67.93;97371.73;1682752;85;21393;-84
2022/04/21 02:10:17;;;;;;;17.45;11.15;;;;;;;1.94;67.97;97370.88;1703282;84;21003;-85
2022/04/21 02:12:45;;;;;;;17.52;11.20;;;;;;;1.94;67.85;97370.88;1682968;84;21027;-85
2022/04/21 02:15:12;;;;;;;19.52;11.33;;;;;;;1.89;67.90;97364.81;1703119;84;21006;-85
2022/04/21 02:17:39;;;;;;;16.65;11.22;;;;;;;1.89;68.17;97362.20;1703078;84;21395;-84
2022/04/21 02:20:09;;;;;;;21.35;12.55;;;;;;;1.93;68.40;97360.44;1703318;84;21005;-84
2022/04/21 02:22:36;;;;;;;17.90;11.85;;;;;;;1.91;68.64;97360.44;1682932;85;21417;-85
2022/04/21 02:25:06;;;;;;;15.95;11.18;;;;;;;1.88;68.04;97366.13;1708023;83;21402;-85
2022/04/21 02:27:34;;;;;;;16.67;11.22;;;;;;;1.88;68.17;97367.43;1687823;85;21019;-84
2022/04/21 02:30:01;;;;;;;20.90;13.13;;;;;;;1.86;68.09;97364.82;1687374;84;21027;-84
2022/04/21 02:32:27;;;;;;;16.85;10.95;;;;;;;1.83;68.18;97359.17;1691594;84;20998;-84
2022/04/21 02:34:54;;;;;;;18.40;11.85;;;;;;;1.83;68.13;97364.39;1691721;84;21462;-85
2022/04/21 02:37:23;;;;;;;20.88;12.98;;;;;;;1.79;68.00;97364.44;1691776;85;20977;-84
2022/04/21 02:39:51;;;;;;;20.43;12.73;;;;;;;1.75;68.19;97370.54;1690125;85;21024;-84
2022/04/21 02:42:20;;;;;;;17.57;11.97;;;;;;;1.72;68.15;97366.20;1689319;85;20992;-84
2022/04/21 02:44:49;;;;;;;16.85;11.25;;;;;;;1.69;68.28;97362.28;1689554;84;21449;-84
2022/04/21 02:47:17;;;;;;;18.12;11.60;;;;;;;1.64;68.39;97375.38;1689713;85;21035;-85
2022/04/21 02:49:46;;;;;;;17.82;11.25;;;;;;;1.61;68.88;97371.46;1689358;84;21505;-84
2022/04/21 02:52:13;;;;;;;18.48;12.58;;;;;;;1.61;69.06;97375.84;1669669;85;20996;-84
2022/04/21 02:57:27;;;;;;;18.77;12.40;;;;;;;1.54;68.77;97373.22;1691670;85;21021;-85
2022/04/21 02:59:57;;;;;;;18.27;12.47;;;;;;;1.54;68.77;97372.37;1691652;85;21005;-85
2022/04/21 03:02:24;;;;;;;18.23;10.75;;;;;;;1.52;68.66;97368.45;1690347;84;21052;-85
2022/04/21 03:04:52;;;;;;;22.45;12.35;;;;;;;1.48;68.71;97365.84;1689553;84;21023;-84
2022/04/21 03:07:21;;;;;;;16.77;11.90;;;;;;;1.48;68.78;97365.42;1689479;85;20957;-84
2022/04/21 03:09:50;;;;;;;17.07;11.18;;;;;;;1.46;70.03;97363.26;1689332;85;20976;-84
2022/04/21 03:12:16;;;;;;;16.00;11.45;;;;;;;1.45;69.39;97366.30;1689393;84;21569;-84
2022/04/21 03:14:43;;;;;;;18.32;11.43;;;;;;;1.45;71.38;97366.72;1690878;85;21473;-84
2022/04/21 03:17:10;;;;;;;14.87;10.63;;;;;;;1.44;71.15;97371.52;1689744;84;21409;-84
2022/04/21 03:19:38;;;;;;;19.77;11.30;;;;;;;1.40;71.50;97369.36;1690727;85;21080;-85
2022/04/21 03:24:53;;;;;;;16.90;11.30;;;;;;;1.36;71.11;97362.41;1674513;85;21032;-85
2022/04/21 03:27:19;;;;;;;18.40;11.70;;;;;;;1.33;72.53;97368.96;1689678;84;21409;-85
2022/04/21 03:29:46;;;;;;;18.23;11.45;;;;;;;1.29;71.32;97364.61;1689230;84;21012;-85
2022/04/21 03:32:13;;;;;;;17.25;11.85;;;;;;;1.28;70.71;97358.94;1701928;83;21069;-86
2022/04/21 03:34:43;;;;;;;19.12;12.10;;;;;;;1.26;70.50;97362.00;1707611;83;20985;-85
2022/04/21 03:37:13;;;;;;;20.10;12.13;;;;;;;1.26;70.40;97362.00;1722189;83;21028;-86
2022/04/21 03:39:42;;;;;;;18.20;11.60;;;;;;;1.25;70.33;97362.88;1701870;84;21041;-85
2022/04/21 03:42:23;;;;;;;16.23;11.08;;;;;;;1.22;70.38;97363.76;1702032;84;20981;-85
2022/04/21 03:44:51;;;;;;;16.67;11.43;;;;;;;1.24;70.31;97363.76;1701976;84;20966;-86
2022/04/21 03:47:18;;;;;;;18.70;12.65;;;;;;;1.24;70.25;97354.63;1690280;84;21504;-85
2022/04/21 03:49:45;;;;;;;19.20;11.90;;;;;;;1.26;70.14;97347.64;1682802;85;21055;-85
2022/04/21 03:52:12;;;;;;;18.92;12.10;;;;;;;1.26;70.21;97353.75;1682066;85;21059;-85
2022/04/21 03:54:40;;;;;;;15.93;11.08;;;;;;;1.30;70.43;97359.82;1681619;85;21078;-85
2022/04/21 03:57:08;;;;;;;18.12;11.57;;;;;;;1.36;70.43;97364.17;1681325;85;21106;-85
2022/04/21 03:59:36;;;;;;;16.20;12.05;;;;;;;1.43;70.39;97356.30;1682400;84;21007;-85
2022/04/21 04:02:04;;;;;;;15.43;10.80;;;;;;;1.50;70.28;97355.81;1682628;85;21090;-85
2022/04/21 04:04:34;;;;;;;18.92;12.43;;;;;;;1.54;70.29;97356.25;1682580;85;21035;-84
2022/04/21 04:12:34;;;;;;;18.98;12.68;;;;;;;1.72;70.48;97351.83;1705768;84;21095;-85
2022/04/21 04:15:03;;;;;;;18.40;12.65;;;;;;;1.82;70.25;97348.72;1744236;82;21091;-84
2022/04/21 04:17:30;;;;;;;17.48;12.35;;;;;;;1.91;70.41;97344.76;1730395;83;21018;-84
2022/04/21 04:19:57;;;;;;;18.30;12.37;;;;;;;2.01;70.09;97344.70;1730989;82;21018;-85
2022/04/21 04:22:23;;;;;;;15.93;11.73;;;;;;;2.08;70.17;97345.12;1730880;83;21018;-85
2022/04/21 04:24:56;;;;;;;17.87;11.48;;;;;;;2.17;69.97;97342.88;1731119;83;21408;-84
2022/04/21 04:27:23;;;;;;;17.55;12.00;;;;;;;2.24;69.96;97348.48;1731146;82;21424;-85
2022/04/21 04:29:50;;;;;;;17.32;11.40;;;;;;;2.32;69.79;97344.53;1712142;83;21036;-85
2022/04/21 04:32:17;;;;;;;17.40;11.50;;;;;;;2.39;69.61;97342.28;1724577;82;21031;-85
2022/04/21 04:34:44;;;;;;;16.87;11.70;;;;;;;2.46;69.49;97341.80;1720713;83;20980;-85
2022/04/21 04:37:11;;;;;;;19.32;10.65;;;;;;;2.53;69.57;97340.02;1720836;83;20984;-85
2022/04/21 04:39:37;;;;;;;18.75;12.13;;;;;;;2.58;69.40;97340.84;1722146;82;21016;-85
2022/04/21 04:42:16;;;;;;;17.37;11.90;;;;;;;2.58;69.14;97339.53;1693860;83;21039;-84
2022/04/21 04:44:47;;;;;;;17.60;12.33;;;;;;;2.59;68.88;97340.84;1692374;85;21038;-85
2022/04/21 04:47:14;;;;;;;20.32;13.43;;;;;;;2.53;69.02;97342.17;1690594;85;21030;-85
2022/04/21 04:49:42;;;;;;;23.15;13.18;;;;;;;2.48;69.20;97341.34;1689361;85;21070;-84
2022/04/21 04:52:09;;;;;;;19.15;13.25;;;;;;;2.40;69.28;97332.25;1689614;85;20999;-85
2022/04/21 04:54:35;;;;;;;22.02;13.40;;;;;;;2.35;69.83;97337.95;1689603;85;21026;-84
2022/04/21 04:57:02;;;;;;;20.35;13.85;;;;;;;2.35;69.25;97334.03;1690686;85;21478;-84
2022/04/21 04:59:29;;;;;;;21.90;13.58;;;;;;;2.35;70.10;97336.64;1711854;83;21429;-85
2022/04/21 05:01:55;;;;;;;24.27;13.50;;;;;;;2.33;70.60;97336.66;1716436;84;20967;-85
2022/04/21 05:04:25;;;;;;;24.90;14.20;;;;;;;2.34;70.69;97337.53;1720167;83;21048;-85
2022/04/21 05:06:57;;;;;;;22.77;14.25;;;;;;;2.33;71.00;97327.95;1720166;83;21045;-85
2022/04/21 05:09:25;;;;;;;23.12;13.85;;;;;;;2.37;71.00;97330.98;1719968;83;21002;-85
2022/04/21 05:11:54;;;;;;;22.10;14.73;;;;;;;2.41;70.46;97331.36;1718122;83;21120;-84
2022/04/21 05:14:22;;;;;;;19.85;14.47;;;;;;;2.48;70.01;97329.14;1718063;83;21447;-85
2022/04/21 05:16:49;;;;;;;23.10;14.47;;;;;;;2.55;69.88;97329.08;1717884;83;20971;-84
2022/04/21 05:19:19;;;;;;;22.10;15.00;;;;;;;2.60;69.92;97327.30;1717904;83;20971;-87
2022/04/21 05:21:48;;;;;;;25.17;14.30;;;;;;;2.63;70.16;97328.13;1717888;83;21380;-86
2022/04/21 05:24:16;;;;;;;23.30;14.45;;;;;;;2.68;69.85;97330.72;1719027;83;20998;-85
2022/04/21 05:26:48;;;;;;;22.98;14.13;;;;;;;2.73;71.02;97326.75;1699160;83;21447;-86
2022/04/21 05:32:03;;;;;;;25.05;15.03;;;;;;;2.85;69.90;97321.84;1735788;82;21014;-85
2022/04/21 05:34:32;;;;;;;28.47;16.48;;;;;;;2.92;70.61;97317.42;1753539;82;20967;-85
2022/04/21 05:37:00;;;;;;;29.52;15.75;;;;;;;2.99;70.15;97318.65;1752979;81;21010;-86
2022/04/21 05:39:29;;;;;;;30.95;17.32;;;;;;;3.10;70.58;97322.47;1708669;84;21002;-85
2022/04/21 05:41:58;;;;;;;25.45;15.43;;;;;;;3.21;70.78;97318.87;1708634;84;20965;-86
2022/04/21 05:44:26;;;;;;;25.30;15.10;;;;;;;3.34;70.80;97318.28;1678743;85;20988;-86
2022/04/21 05:46:53;;;;;;;23.57;15.78;;;;;;;3.45;70.41;97316.43;1712487;83;20992;-85
2022/04/21 05:49:20;;;;;;;22.20;15.00;;;;;;;3.58;69.78;97319.77;1730804;83;21416;-85
2022/04/21 05:51:48;;;;;;;22.52;13.55;;;;;;;3.72;69.72;97321.31;1720602;83;20990;-86
2022/04/21 05:54:16;;;;;;;23.55;15.38;;;;;;;3.86;69.59;97319.38;1753211;81;21013;-85
2022/04/21 05:56:43;;;;;;;28.12;16.42;;;;;;;4.02;69.72;97319.20;1753410;81;21061;-84
2022/04/21 05:59:10;;;;;;;22.85;15.53;;;;;;;4.18;69.21;97322.00;1753255;81;21049;-85
2022/04/21 06:01:36;;;;;;;22.05;15.18;;;;;;;4.33;68.93;97320.89;1753214;81;21041;-85
2022/04/21 06:04:03;;;;;;;23.30;15.45;;;;;;;4.51;68.89;97320.63;1753496;81;21428;-85
2022/04/21 06:06:30;;;;;;;25.80;14.98;;;;;;;4.65;68.57;97311.23;1741004;81;21011;-85
2022/04/21 06:08:57;;;;;;;23.07;15.35;;;;;;;4.79;68.30;97314.92;1705586;84;21820;-85
2022/04/21 06:11:24;;;;;;;25.17;15.05;;;;;;;4.97;68.09;97305.41;1687569;85;21015;-85
2022/04/21 06:13:51;;;;;;;20.55;14.18;;;;;;;5.21;67.61;97318.11;1687336;85;21031;-85
2022/04/21 06:16:17;;;;;;;21.52;14.40;;;;;;;5.46;66.71;97312.38;1687512;85;21054;-85
2022/04/21 06:18:44;;;;;;;22.55;13.85;;;;;;;5.71;66.24;97313.19;1693236;83;21023;-85
2022/04/21 06:21:11;;;;;;;26.35;13.10;;;;;;;6.00;64.88;97311.69;1753218;81;20974;-85
2022/04/21 06:23:37;;;;;;;20.30;13.43;;;;;;;6.34;64.67;97313.58;1753405;81;20997;-86
2022/04/21 06:26:04;;;;;;;20.32;13.65;;;;;;;6.67;63.70;97308.84;1753182;82;21014;-86
2022/04/21 06:28:31;;;;;;;15.45;11.40;;;;;;;6.99;62.57;97308.02;1753288;81;21072;-84
2022/04/21 06:30:58;;;;;;;14.65;10.78;;;;;;;7.33;59.73;97308.91;1753056;81;21404;-85
2022/04/21 06:33:24;;;;;;;17.77;10.98;;;;;;;7.60;59.58;97307.70;1746590;81;21015;-84
2022/04/21 06:35:51;;;;;;;17.40;11.43;;;;;;;7.85;56.66;97315.37;1712409;83;21055;-84
2022/04/21 06:38:17;;;;;;;14.75;10.85;;;;;;;8.05;57.85;97315.63;1733081;83;21073;-85
2022/04/21 06:40:44;;;;;;;14.65;10.28;;;;;;;8.23;56.93;97310.70;1750028;81;21384;-84
2022/04/21 06:48:43;;;;;;;10.85;9.23;;;;;;;8.79;54.68;97318.19;1735108;82;21030;-85
2022/04/21 06:51:10;;;;;;;12.45;9.80;;;;;;;8.93;51.31;97307.14;1703777;84;21296;-85
2022/04/21 06:53:36;;;;;;;11.78;8.78;;;;;;;9.07;52.13;97310.66;1734919;82;21455;-85
2022/04/21 06:56:04;;;;;;;9.90;8.38;;;;;;;9.20;48.50;97315.50;1705059;83;21035;-85
2022/04/21 06:58:30;;;;;;;11.00;8.38;;;;;;;9.27;46.21;97315.70;1734961;82;21017;-85
2022/04/21 07:00:56;;;;;;;10.65;8.65;;;;;;;9.35;46.88;97308.34;1704146;84;21010;-85
2022/04/21 07:03:23;;;;;;;11.18;8.33;;;;;;;9.46;47.15;97313.25;1735168;82;21444;-85
2022/04/21 07:05:55;;;;;;;8.38;7.50;;;;;;;9.55;47.74;97310.72;1676116;85;20949;-85
2022/04/21 07:08:22;;;;;;;9.90;7.90;;;;;;;9.61;45.14;97307.88;1705456;84;21041;-85
2022/04/21 07:10:48;;;;;;;11.55;8.55;;;;;;;9.70;46.13;97316.38;1672014;85;21043;-85
2022/04/21 07:13:15;;;;;;;9.78;7.50;;;;;;;9.79;46.57;97301.95;1716273;83;21030;-86
2022/04/21 07:15:42;;;;;;;8.75;7.85;;;;;;;9.92;44.17;97313.78;1750108;82;21053;-85
2022/04/21 07:18:11;;;;;;;9.55;8.30;;;;;;;10.00;44.40;97312.17;1750202;82;21029;-91
2022/04/21 07:20:38;;;;;;;8.68;7.40;;;;;;;10.10;44.43;97314.89;1750121;82;21068;-84
2022/04/21 07:23:05;;;;;;;8.98;6.75;;;;;;;10.22;43.11;97314.00;1750222;81;20974;-85
2022/04/21 07:25:32;;;;;;;8.85;6.83;;;;;;;10.30;43.61;97317.22;1749522;81;21085;-84
2022/04/21 07:27:58;;;;;;;7.83;6.58;;;;;;;10.39;43.84;97306.23;1750308;82;21048;-85
2022/04/21 07:30:25;;;;;;;9.50;6.90;;;;;;;10.45;41.21;97311.79;1745613;81;21150;-81
2022/04/21 07:32:51;;;;;;;7.90;7.03;;;;;;;10.57;42.65;97318.38;1705720;83;21060;-87
2022/04/21 07:35:18;;;;;;;9.53;7.30;;;;;;;10.66;41.72;97307.86;1715470;83;21086;-86
2022/04/21 07:37:46;;;;;;;12.63;7.03;;;;;;;10.72;40.55;97311.61;1710972;83;21479;-86
2022/04/21 07:40:13;;;;;;;7.70;6.53;;;;;;;10.77;40.56;97298.15;1724487;83;21011;-86
2022/04/21 07:42:40;;;;;;;8.88;6.67;;;;;;;10.85;42.72;97300.03;1724383;83;21041;-84
2022/04/21 07:45:07;;;;;;;9.93;6.33;;;;;;;10.95;40.99;97301.81;1706247;82;21470;-83
2022/04/21 07:47:34;;;;;;;8.25;7.25;;;;;;;11.02;41.54;97303.30;1693842;84;21038;-82
2022/04/21 07:50:02;;;;;;;8.88;6.53;;;;;;;11.11;40.66;97303.80;1712889;83;20987;-81
2022/04/21 07:55:22;;;;;;;9.78;6.20;;;;;;;11.31;42.12;97296.32;1695848;84;21134;-81
2022/04/21 07:57:53;;;;;;;7.65;6.53;;;;;;;11.30;41.04;97300.75;1708453;83;21493;-81
2022/04/21 08:00:23;;;;;;;8.80;6.37;;;;;;;11.22;39.16;97301.09;1712843;82;21386;-83
2022/04/21 08:02:53;;;;;;;8.65;6.30;;;;;;;11.01;37.46;97311.30;1689121;84;21016;-84
2022/04/21 08:05:24;;;;;;;6.28;5.58;;;;;;;10.91;38.38;97313.02;1692462;84;21036;-80
2022/04/21 08:07:52;;;;;;;7.72;6.00;;;;;;;10.74;38.12;97311.06;1695670;84;21037;-82
2022/04/21 08:10:22;;;;;;;8.13;5.83;;;;;;;10.66;39.51;97319.34;1694154;83;21025;-82
2022/04/21 08:12:58;;;;;;;9.45;7.47;;;;;;;10.67;38.47;97315.75;1696189;83;21092;-83
2022/04/21 08:15:35;;;;;;;8.30;5.92;;;;;;;10.71;39.16;97308.53;1699583;83;21007;-82
2022/04/21 08:18:08;;;;;;;9.20;5.92;;;;;;;10.79;39.49;97308.21;1694506;83;21065;-83
2022/04/21 08:20:40;;;;;;;7.97;6.27;;;;;;;10.81;39.20;97322.28;1699142;83;21344;-83
2022/04/21 08:23:08;;;;;;;17.27;8.83;;;;;;;10.75;38.02;97314.59;1714138;82;21396;-82
2022/04/21 08:34:00;;;;;;;10.45;5.25;;;;;;;10.56;38.25;97316.19;1705392;82;21024;-83
2022/04/21 08:36:28;;;;;;;7.22;6.10;;;;;;;10.47;38.30;97321.88;1708715;82;21095;-82
2022/04/21 08:38:54;;;;;;;8.80;6.00;;;;;;;10.41;39.14;97315.00;1711835;82;21421;-82
2022/04/21 08:41:26;;;;;;;9.65;5.97;;;;;;;10.41;39.94;97318.97;1707163;82;21040;-80
2022/04/21 08:43:56;;;;;;;7.40;6.15;;;;;;;10.43;40.71;97317.59;1709495;83;21015;-82
2022/04/21 08:46:25;;;;;;;10.08;6.33;;;;;;;10.46;41.23;97324.11;1711117;82;21043;-83
2022/04/21 08:48:53;;;;;;;8.38;6.03;;;;;;;10.51;41.72;97325.27;1712828;82;21035;-84
2022/04/21 08:51:20;;;;;;;12.43;6.35;;;;;;;10.56;42.26;97324.61;1697994;83;21048;-85
2022/04/21 08:53:47;;;;;;;11.08;6.67;;;;;;;10.61;42.42;97321.77;1707977;82;21450;-83
2022/04/21 08:56:15;;;;;;;8.68;6.15;;;;;;;10.64;42.34;97329.15;1711648;82;21047;-82
2022/04/21 08:58:41;;;;;;;7.17;6.42;;;;;;;10.66;42.69;97325.96;1691583;83;20979;-83
2022/04/21 09:01:09;;;;;;;12.18;6.95;;;;;;;10.71;42.45;97321.78;1737032;82;20987;-85
2022/04/21 09:03:39;;;;;;;9.45;6.50;;;;;;;10.77;42.43;97314.93;1735382;82;21038;-85
2022/04/21 09:06:07;;;;;;;29.90;8.20;;;;;;;10.86;41.61;97320.30;1733032;82;21032;-78
2022/04/21 09:08:37;;;;;;;7.35;6.53;;;;;;;11.01;41.28;97320.10;1717413;82;21103;-79
2022/04/21 09:11:09;;;;;;;10.05;7.22;;;;;;;11.17;41.36;97311.52;1680216;84;21373;-80
2022/04/21 09:13:40;;;;;;;7.62;6.42;;;;;;;11.26;41.81;97316.88;1678501;84;21075;-80
2022/04/21 09:16:12;;;;;;;12.73;10.03;;;;;;;11.35;41.66;97307.20;1734463;82;20983;-80
2022/04/21 09:18:49;;;;;;;14.87;9.43;;;;;;;11.37;41.66;97318.59;1725509;83;21039;-80
2022/04/21 09:21:17;;;;;;;12.85;7.47;;;;;;;11.45;41.32;97311.62;1711007;83;21581;-77
2022/04/21 09:23:48;;;;;;;6.45;5.72;;;;;;;11.59;39.91;97313.68;1708749;83;21047;-78
2022/04/21 09:26:20;;;;;;;9.35;6.35;;;;;;;11.67;40.34;97310.20;1705667;83;21302;-77
2022/04/21 09:28:58;;;;;;;11.43;8.33;;;;;;;11.69;37.97;97318.09;1739730;82;21395;-86
2022/04/21 09:31:29;;;;;;;7.53;5.80;;;;;;;11.70;39.59;97311.39;1736945;82;21050;-90
2022/04/21 09:34:01;;;;;;;10.60;6.00;;;;;;;11.71;38.38;97308.29;1730779;81;21064;-88
2022/04/21 09:36:31;;;;;;;32.78;7.42;;;;;;;11.73;38.12;97307.28;1688256;84;21444;-88
2022/04/21 09:39:03;;;;;;;11.35;5.80;;;;;;;11.75;39.31;97304.08;1708401;83;21043;-85
2022/04/21 09:41:34;;;;;;;7.67;6.55;;;;;;;11.86;40.00;97306.70;1714294;82;20981;-88
2022/04/21 09:46:58;;;;;;;24.80;13.28;;;;;;;12.01;39.63;97293.20;1713713;83;21148;-87
2022/04/21 09:49:44;;;;;;;10.20;7.17;;;;;;;12.11;39.47;97303.81;1713506;83;21136;-87
2022/04/21 09:52:15;;;;;;;30.45;8.28;;;;;;;12.12;38.34;97302.00;1713233;83;22198;-89
2022/04/21 09:54:46;;;;;;;24.45;7.67;;;;;;;12.14;37.78;97303.66;1710695;83;21568;-86
2022/04/21 09:57:30;;;;;;;12.00;6.08;;;;;;;12.24;38.76;97298.78;1715954;82;21093;-86
2022/04/21 09:59:59;;;;;;;20.30;9.65;;;;;;;12.32;37.23;97303.72;1713984;83;21045;-86
2022/04/21 10:02:29;;;;;;;10.60;6.53;;;;;;;12.11;37.87;97298.95;1691546;83;21053;-85
2022/04/21 10:04:57;;;;;;;26.27;16.35;;;;;;;12.03;37.28;97299.77;1714676;82;22338;-85
2022/04/21 10:07:24;;;;;;;10.30;6.85;;;;;;;12.02;39.28;97297.57;1713641;82;20965;-85
2022/04/21 10:09:51;;;;;;;13.25;6.83;;;;;;;12.08;39.41;97302.63;1712710;83;21036;-85
2022/04/21 10:12:19;;;;;;;38.23;11.03;;;;;;;11.90;37.94;97297.67;1712838;83;21016;-84
2022/04/21 10:14:47;;;;;;;11.18;7.37;;;;;;;11.87;38.44;97301.78;1715130;82;22253;-86
2022/04/21 10:17:14;;;;;;;9.20;6.20;;;;;;;11.92;38.41;97302.92;1730866;82;20972;-85
2022/04/21 10:19:41;;;;;;;25.45;7.12;;;;;;;11.99;38.94;97304.34;1705868;83;21398;-84
2022/04/21 10:22:14;;;;;;;44.63;8.38;;;;;;;12.12;39.05;97296.69;1695123;83;21075;-85
2022/04/21 10:24:41;;;;;;;32.20;9.18;;;;;;;12.30;38.99;97299.42;1721043;82;20984;-85
2022/04/21 10:27:39;;;;;;;13.83;6.80;;;;;;;12.50;38.99;97290.01;1697400;83;20965;-86
2022/04/21 10:30:29;;;;;;;6.87;6.17;;;;;;;12.75;39.46;97294.60;1734218;82;21004;-88
2022/04/21 10:32:59;;;;;;;20.50;13.25;;;;;;;12.98;38.27;97283.25;1706748;83;21444;-86
2022/04/21 10:35:38;;;;;;;7.37;6.22;;;;;;;13.16;37.04;97279.66;1718755;82;21476;-86
2022/04/21 10:38:19;;;;;;;14.20;10.10;;;;;;;13.42;36.66;97271.27;1754493;81;21026;-85
2022/04/21 10:41:06;;;;;;;7.33;5.35;;;;;;;13.71;36.67;97279.05;1721399;83;21523;-86
2022/04/21 10:43:56;;;;;;;7.53;5.70;;;;;;;13.61;35.59;97271.16;1702208;83;21091;-85
2022/04/21 10:46:26;;;;;;;8.43;6.00;;;;;;;13.37;33.77;97274.16;1737977;81;21457;-87
2022/04/21 10:48:53;;;;;;;6.78;6.08;;;;;;;13.17;34.14;97277.38;1716385;82;21016;-86
2022/04/21 10:57:32;;;;;;;6.97;5.78;;;;;;;12.97;35.68;97280.21;1726763;81;20989;-88
2022/04/21 11:00:11;;;;;;;7.65;6.37;;;;;;;13.00;36.82;97282.73;1737172;81;21079;-85
2022/04/21 11:02:46;;;;;;;7.25;5.70;;;;;;;13.13;35.15;97281.63;1736485;81;21481;-87
2022/04/21 11:05:27;;;;;;;10.00;5.80;;;;;;;13.03;35.63;97284.75;1722460;81;21110;-86
2022/04/21 11:08:00;;;;;;;6.85;5.40;;;;;;;13.02;36.14;97280.84;1703544;83;21040;-87
2022/04/21 11:10:45;;;;;;;7.90;5.60;;;;;;;12.97;35.02;97276.22;1711661;83;21092;-86
2022/04/21 11:13:17;;;;;;;;;;;;;;;12.97;35.81;97279.76;1738175;81;20962;-86
2022/04/21 11:15:53;;;;;;;6.12;5.17;;;;;;;12.86;35.27;97275.43;1706921;83;20167;-87
2022/04/21 11:18:33;;;;;;;18.82;14.00;;;;;;;12.83;36.16;97274.27;1719309;82;21769;-86
2022/04/21 11:21:26;;;;;;;5.70;5.10;;;;;;;12.89;36.58;97277.48;1717861;82;21035;-86
2022/04/21 11:23:58;;;;;;;5.67;5.17;;;;;;;12.86;34.50;97270.11;1726210;81;21089;-88
2022/04/21 11:26:28;;;;;;;10.23;5.50;;;;;;;12.80;33.88;97281.94;1701499;83;22328;-87
2022/04/21 11:29:02;;;;;;;7.28;5.30;;;;;;;12.71;34.43;97279.73;1737630;81;21075;-86
2022/04/21 11:31:29;;;;;;;;;;;;;;;12.71;34.80;97281.06;1692734;82;21035;-87
2022/04/21 11:34:04;;;;;;;16.45;9.28;;;;;;;12.76;34.56;97283.90;1694115;82;20157;-86
2022/04/21 11:36:37;;;;;;;32.35;11.53;;;;;;;12.88;35.69;97277.07;1657029;84;21059;-84
2022/04/21 11:39:08;;;;;;;41.50;15.23;;;;;;;12.87;35.25;97269.20;1670683;84;21020;-87
2022/04/21 11:41:59;;;;;;;;;;;;;;;;;;;;;
2022/04/21 11:44:37;;;;;;;13.43;6.90;;;;;;;13.39;36.19;97277.61;1666510;84;21101;-87
2022/04/21 11:47:25;;;;;;;;;;;;;;;;;;;;;
2022/04/21 11:50:04;;;;;;;6.78;6.15;;;;;;;13.55;35.65;97272.37;1660565;86;21100;-87
2022/04/21 11:52:39;;;;;;;28.65;8.98;;;;;;;13.45;33.62;97265.30;1629717;86;21012;-85
2022/04/21 11:55:16;;;;;;;33.95;11.60;;;;;;;13.30;33.86;97269.65;1638996;85;21543;-89
2022/04/21 11:57:48;;;;;;;13.90;6.78;;;;;;;13.50;35.05;97263.77;1667876;84;21043;-86
2022/04/21 12:09:36;;;;;;;;;;;;;;;;;;;;;
2022/04/21 12:14:45;;;;;;;51.73;18.57;;;;;;;14.11;33.73;97252.03;1650288;84;21488;-85
2022/04/21 12:17:39;;;;;;;;;;;;;;;;;;;;;
2022/04/21 12:20:12;;;;;;;36.50;15.98;;;;;;;14.42;33.37;97243.23;1663695;84;21036;-87
2022/04/21 12:22:39;;;;;;;25.70;13.40;;;;;;;14.63;34.50;97239.34;1650370;84;21059;-85
2022/04/21 12:25:13;;;;;;;10.48;6.30;;;;;;;14.88;34.18;97242.39;1666128;84;21520;-86
2022/04/21 12:27:39;;;;;;;8.67;6.30;;;;;;;14.86;33.31;97239.81;1669954;84;21476;-83
2022/04/21 12:30:12;;;;;;;7.90;6.10;;;;;;;14.94;33.86;97234.02;1660170;84;21189;-85
2022/04/21 12:32:49;;;;;;;6.12;5.33;;;;;;;15.26;33.40;97233.02;1666761;84;21164;-87
2022/04/21 12:35:21;;;;;;;53.78;18.70;;;;;;;15.56;31.93;97235.63;1710658;82;21500;-86
2022/04/21 12:40:25;;;;;;;7.83;5.50;;;;;;;16.19;32.33;97234.44;1672447;82;21520;-83
2022/04/21 12:42:55;;;;;;;6.35;5.47;;;;;;;16.64;31.36;97218.12;1710600;82;21055;-84
2022/04/21 12:45:22;;;;;;;8.95;5.58;;;;;;;17.07;30.61;97234.95;1707268;82;21159;-82